Time;durP1;ratioP1;P1;durP2;ratioP2;P2;SDS_P1;SDS_P2;PMS_P1;PMS_P2;Temp;Humidity;BMP_temperature;BMP_pressure;BME280_temperature;BME280_humidity;BME280_pressure;Samples;Min_cycle;Max_cycle;Signal;HPM_P1;HPM_P2
2023/06/23 00:01:31;;;;;;;;;;;;;;;;;;4996677;28;19995;-69
2023/06/23 00:03:59;;;;;;;;;;;;;;;;;;4999516;28;19930;-68
2023/06/23 00:06:26;;;;;;;;;;;;;;;;;;4996935;28;19980;-68
2023/06/23 00:08:52;;;;;;;;;;;;;;;;;;4998726;28;19925;-68
2023/06/23 00:11:20;;;;;;;;;;;;;;;;;;4996084;28;19926;-68
2023/06/23 00:13:47;;;;;;;;;;;;;;;;;;5004386;28;19932;-67
2023/06/23 00:16:14;;;;;;;;;;;;;;;;;;5002987;28;20027;-67
2023/06/23 00:18:41;;;;;;;;;;;;;;;;;;4998852;28;20024;-68
2023/06/23 00:21:08;;;;;;;;;;;;;;;;;;4999953;28;19933;-68
2023/06/23 00:23:35;;;;;;;;;;;;;;;;;;5000814;28;19953;-68
2023/06/23 00:26:03;;;;;;;;;;;;;;;;;;4998228;28;20030;-68
2023/06/23 00:28:30;;;;;;;;;;;;;;;;;;4998002;28;19935;-68
2023/06/23 00:30:57;;;;;;;;;;;;;;;;;;5013279;28;19929;-68
2023/06/23 00:33:24;;;;;;;;;;;;;;;;;;5004333;28;20024;-68
2023/06/23 00:35:51;;;;;;;;;;;;;;;;;;5009769;28;20008;-68
2023/06/23 00:38:18;;;;;;;;;;;;;;;;;;5007713;28;20377;-68
2023/06/23 00:40:45;;;;;;;;;;;;;;;;;;4998590;28;20834;-68
2023/06/23 00:43:12;;;;;;;;;;;;;;;;;;4997117;28;19926;-68
2023/06/23 00:45:39;;;;;;;;;;;;;;;;;;5007066;28;19964;-68
2023/06/23 00:48:08;;;;;;;;;;;;;;;;;;5006385;28;19933;-69
2023/06/23 00:50:35;;;;;;;;;;;;;;;;;;5003626;28;19987;-68
2023/06/23 00:53:02;;;;;;;;;;;;;;;;;;4996581;28;20012;-68
2023/06/23 00:55:29;;;;;;;;;;;;;;;;;;5014210;28;19932;-69
2023/06/23 00:57:57;;;;;;;;;;;;;;;;;;5002343;28;20055;-69
2023/06/23 01:00:23;;;;;;;;;;;;;;;;;;4995219;28;20125;-68
2023/06/23 01:02:50;;;;;;;;;;;;;;;;;;5000992;28;20004;-69
2023/06/23 01:05:17;;;;;;;;;;;;;;;;;;5008585;28;19988;-68
2023/06/23 01:07:44;;;;;;;;;;;;;;;;;;4999263;28;20347;-68
2023/06/23 01:10:11;;;;;;;;;;;;;;;;;;5001006;28;19968;-68
2023/06/23 01:12:38;;;;;;;;;;;;;;;;;;5003930;28;19932;-67
2023/06/23 01:15:07;;;;;;;;;;;;;;;;;;5009272;28;20388;-72
2023/06/23 01:17:34;;;;;;;;;;;;;;;;;;5003088;28;20516;-68
2023/06/23 01:20:12;;;;;;;;;;;;;;;;;;5005791;28;19925;-68
2023/06/23 01:22:39;;;;;;;;;;;;;;;;;;5001856;28;19925;-68
2023/06/23 01:25:07;;;;;;;;;;;;;;;;;;5003632;28;19925;-68
2023/06/23 01:27:34;;;;;;;;;;;;;;;;;;4999503;28;19960;-68
2023/06/23 01:30:01;;;;;;;;;;;;;;;;;;5002317;28;20000;-68
2023/06/23 01:32:28;;;;;;;;;;;;;;;;;;5003235;28;19932;-68
2023/06/23 01:34:55;;;;;;;;;;;;;;;;;;4999286;28;19925;-68
2023/06/23 01:37:22;;;;;;;;;;;;;;;;;;4999945;28;20012;-68
2023/06/23 01:39:49;;;;;;;;;;;;;;;;;;4999825;28;19932;-68
2023/06/23 01:42:16;;;;;;;;;;;;;;;;;;5004370;28;20451;-68
2023/06/23 01:44:43;;;;;;;;;;;;;;;;;;5005036;28;19925;-67
2023/06/23 01:47:10;;;;;;;;;;;;;;;;;;5009886;28;20445;-68
2023/06/23 01:49:37;;;;;;;;;;;;;;;;;;5006657;28;19938;-68
2023/06/23 01:52:06;;;;;;;;;;;;;;;;;;5006851;28;19965;-68
2023/06/23 01:54:33;;;;;;;;;;;;;;;;;;4995400;28;19926;-67
2023/06/23 01:57:00;;;;;;;;;;;;;;;;;;5003802;28;20012;-67
2023/06/23 01:59:27;;;;;;;;;;;;;;;;;;4998676;28;19932;-68
2023/06/23 02:01:54;;;;;;;;;;;;;;;;;;5001760;28;20433;-69
2023/06/23 02:04:21;;;;;;;;;;;;;;;;;;5000183;28;20369;-67
2023/06/23 02:06:48;;;;;;;;;;;;;;;;;;4992375;28;20407;-67
2023/06/23 02:09:15;;;;;;;;;;;;;;;;;;4997481;28;20463;-68
2023/06/23 02:11:42;;;;;;;;;;;;;;;;;;4996297;28;20021;-67
2023/06/23 02:14:09;;;;;;;;;;;;;;;;;;4994228;28;20364;-68
2023/06/23 02:16:36;;;;;;;;;;;;;;;;;;4996825;28;20304;-67
2023/06/23 02:19:03;;;;;;;;;;;;;;;;;;5004863;28;20448;-67
2023/06/23 02:21:30;;;;;;;;;;;;;;;;;;4999330;28;19927;-67
2023/06/23 02:23:57;;;;;;;;;;;;;;;;;;4996878;28;20024;-67
2023/06/23 02:26:25;;;;;;;;;;;;;;;;;;5008406;28;20020;-67
2023/06/23 02:28:52;;;;;;;;;;;;;;;;;;4997472;28;19926;-68
2023/06/23 02:31:19;;;;;;;;;;;;;;;;;;4998028;28;20009;-68
2023/06/23 02:33:46;;;;;;;;;;;;;;;;;;4995751;28;20021;-68
2023/06/23 02:36:13;;;;;;;;;;;;;;;;;;4998858;28;19961;-68
2023/06/23 02:38:40;;;;;;;;;;;;;;;;;;4999041;28;19932;-68
2023/06/23 02:41:07;;;;;;;;;;;;;;;;;;4998024;28;20332;-68
2023/06/23 02:43:34;;;;;;;;;;;;;;;;;;4998780;28;20337;-68
2023/06/23 02:46:01;;;;;;;;;;;;;;;;;;4999788;28;20303;-68
2023/06/23 02:48:28;;;;;;;;;;;;;;;;;;4999799;28;20303;-67
2023/06/23 02:50:55;;;;;;;;;;;;;;;;;;5002896;28;20000;-67
2023/06/23 02:53:22;;;;;;;;;;;;;;;;;;4998824;28;19981;-67
2023/06/23 02:55:49;;;;;;;;;;;;;;;;;;4996182;28;19929;-67
2023/06/23 02:58:16;;;;;;;;;;;;;;;;;;4994248;28;19972;-67
2023/06/23 03:00:43;;;;;;;;;;;;;;;;;;5000130;28;19931;-67
2023/06/23 03:03:10;;;;;;;;;;;;;;;;;;4999911;28;19926;-67
2023/06/23 03:05:37;;;;;;;;;;;;;;;;;;4996789;28;20019;-67
2023/06/23 03:08:04;;;;;;;;;;;;;;;;;;4999453;28;19932;-66
2023/06/23 03:10:31;;;;;;;;;;;;;;;;;;5000739;28;19968;-67
2023/06/23 03:12:59;;;;;;;;;;;;;;;;;;4993281;28;20479;-67
2023/06/23 03:15:26;;;;;;;;;;;;;;;;;;5006485;28;19976;-67
2023/06/23 03:17:53;;;;;;;;;;;;;;;;;;5002652;28;20044;-67
2023/06/23 03:20:22;;;;;;;;;;;;;;;;;;5000387;28;19932;-67
2023/06/23 03:22:49;;;;;;;;;;;;;;;;;;4996494;28;19930;-67
2023/06/23 03:25:16;;;;;;;;;;;;;;;;;;4997828;28;19925;-67
2023/06/23 03:27:43;;;;;;;;;;;;;;;;;;5006139;28;20665;-67
2023/06/23 03:30:12;;;;;;;;;;;;;;;;;;5005802;28;19965;-67
2023/06/23 03:32:39;;;;;;;;;;;;;;;;;;5003293;28;20009;-67
2023/06/23 03:35:06;;;;;;;;;;;;;;;;;;5002029;28;19961;-67
2023/06/23 03:37:33;;;;;;;;;;;;;;;;;;4995838;28;19995;-67
2023/06/23 03:40:00;;;;;;;;;;;;;;;;;;4996027;28;19961;-67
2023/06/23 03:42:27;;;;;;;;;;;;;;;;;;5000088;28;19953;-67
2023/06/23 03:44:54;;;;;;;;;;;;;;;;;;5006912;28;19936;-67
2023/06/23 03:47:21;;;;;;;;;;;;;;;;;;4999055;28;19932;-67
2023/06/23 03:49:48;;;;;;;;;;;;;;;;;;4995356;28;19930;-67
2023/06/23 03:52:15;;;;;;;;;;;;;;;;;;4994020;28;20029;-67
2023/06/23 03:54:42;;;;;;;;;;;;;;;;;;5001831;28;20451;-67
2023/06/23 03:57:09;;;;;;;;;;;;;;;;;;4999713;28;19941;-67
2023/06/23 03:59:36;;;;;;;;;;;;;;;;;;4999717;28;20460;-67
2023/06/23 04:02:03;;;;;;;;;;;;;;;;;;5002171;28;20016;-67
2023/06/23 04:04:31;;;;;;;;;;;;;;;;;;5002069;28;19963;-67
2023/06/23 04:06:57;;;;;;;;;;;;;;;;;;4996378;28;19932;-67
2023/06/23 04:09:24;;;;;;;;;;;;;;;;;;5000984;28;20021;-67
2023/06/23 04:11:51;;;;;;;;;;;;;;;;;;4997092;28;19929;-67
2023/06/23 04:14:18;;;;;;;;;;;;;;;;;;4998558;28;19984;-67
2023/06/23 04:16:45;;;;;;;;;;;;;;;;;;4998601;28;19925;-68
2023/06/23 04:19:12;;;;;;;;;;;;;;;;;;5001087;28;19987;-67
2023/06/23 04:21:39;;;;;;;;;;;;;;;;;;5000039;28;20012;-68
2023/06/23 04:24:06;;;;;;;;;;;;;;;;;;5001166;28;20016;-67
2023/06/23 04:26:33;;;;;;;;;;;;;;;;;;4998648;28;19980;-67
2023/06/23 04:29:02;;;;;;;;;;;;;;;;;;5007093;28;19925;-67
2023/06/23 04:31:28;;;;;;;;;;;;;;;;;;5012176;28;20470;-67
2023/06/23 04:33:55;;;;;;;;;;;;;;;;;;5010647;28;20311;-67
2023/06/23 04:36:22;;;;;;;;;;;;;;;;;;5011151;28;19964;-67
2023/06/23 04:38:49;;;;;;;;;;;;;;;;;;5007576;28;20009;-67
2023/06/23 04:41:16;;;;;;;;;;;;;;;;;;5006423;28;19980;-66
2023/06/23 04:43:43;;;;;;;;;;;;;;;;;;5006019;28;19931;-68
2023/06/23 04:46:11;;;;;;;;;;;;;;;;;;5006068;28;19926;-67
2023/06/23 04:48:38;;;;;;;;;;;;;;;;;;5009674;28;19995;-68
2023/06/23 04:51:05;;;;;;;;;;;;;;;;;;5010817;28;19934;-68
2023/06/23 04:53:32;;;;;;;;;;;;;;;;;;5003120;28;19934;-68
2023/06/23 04:55:59;;;;;;;;;;;;;;;;;;5001510;28;20402;-67
2023/06/23 04:58:26;;;;;;;;;;;;;;;;;;5009475;28;20016;-68
2023/06/23 05:00:53;;;;;;;;;;;;;;;;;;5008995;28;20008;-68
2023/06/23 05:03:20;;;;;;;;;;;;;;;;;;5003225;28;19925;-69
2023/06/23 05:05:48;;;;;;;;;;;;;;;;;;5006648;28;20016;-71
2023/06/23 05:08:15;;;;;;;;;;;;;;;;;;5010793;28;19925;-68
2023/06/23 05:10:42;;;;;;;;;;;;;;;;;;5011127;28;20029;-68
2023/06/23 05:13:09;;;;;;;;;;;;;;;;;;5010296;28;19952;-68
2023/06/23 05:15:36;;;;;;;;;;;;;;;;;;5010934;28;19960;-68
2023/06/23 05:18:03;;;;;;;;;;;;;;;;;;5012865;28;20447;-68
2023/06/23 05:20:30;;;;;;;;;;;;;;;;;;5011089;28;20368;-68
2023/06/23 05:22:57;;;;;;;;;;;;;;;;;;5014256;28;20005;-68
2023/06/23 05:25:29;;;;;;;;;;;;;;;;;;5009333;28;19964;-67
2023/06/23 05:27:59;;;;;;;;;;;;;;;;;;5007495;28;19940;-68
2023/06/23 05:30:26;;;;;;;;;;;;;;;;;;5012228;28;19933;-68
2023/06/23 05:32:53;;;;;;;;;;;;;;;;;;5006734;28;19976;-67
2023/06/23 05:35:20;;;;;;;;;;;;;;;;;;5005152;28;20021;-67
2023/06/23 05:37:47;;;;;;;;;;;;;;;;;;5012662;28;20016;-67
2023/06/23 05:40:15;;;;;;;;;;;;;;;;;;5009537;28;19929;-68
2023/06/23 05:42:42;;;;;;;;;;;;;;;;;;5006568;28;20029;-67
2023/06/23 05:45:09;;;;;;;;;;;;;;;;;;4996314;28;20024;-69
2023/06/23 05:47:35;;;;;;;;;;;;;;;;;;5000113;28;20027;-68
2023/06/23 05:50:02;;;;;;;;;;;;;;;;;;5012072;28;19925;-68
2023/06/23 05:52:29;;;;;;;;;;;;;;;;;;5003534;28;19925;-69
2023/06/23 05:54:56;;;;;;;;;;;;;;;;;;5004921;28;20361;-69
2023/06/23 05:57:24;;;;;;;;;;;;;;;;;;5002687;28;20363;-68
2023/06/23 05:59:50;;;;;;;;;;;;;;;;;;4999901;28;19926;-68
2023/06/23 06:02:18;;;;;;;;;;;;;;;;;;5009491;28;20024;-69
2023/06/23 06:04:45;;;;;;;;;;;;;;;;;;5007593;28;19926;-67
2023/06/23 06:07:12;;;;;;;;;;;;;;;;;;5007860;28;20020;-67
2023/06/23 06:09:39;;;;;;;;;;;;;;;;;;4994854;28;20012;-67
2023/06/23 06:12:06;;;;;;;;;;;;;;;;;;4995081;28;19925;-68
2023/06/23 06:14:33;;;;;;;;;;;;;;;;;;5001530;28;20021;-68
2023/06/23 06:17:00;;;;;;;;;;;;;;;;;;5014178;28;20419;-67
2023/06/23 06:19:27;;;;;;;;;;;;;;;;;;5013835;28;20346;-68
2023/06/23 06:21:54;;;;;;;;;;;;;;;;;;5008596;28;19953;-68
2023/06/23 06:24:21;;;;;;;;;;;;;;;;;;4997946;28;19926;-68
2023/06/23 06:26:49;;;;;;;;;;;;;;;;;;5005978;28;19981;-68
2023/06/23 06:29:16;;;;;;;;;;;;;;;;;;4994379;28;19969;-68
2023/06/23 06:31:44;;;;;;;;;;;;;;;;;;4997488;28;19926;-68
2023/06/23 06:34:11;;;;;;;;;;;;;;;;;;4995507;28;19926;-70
2023/06/23 06:36:38;;;;;;;;;;;;;;;;;;5009448;28;19995;-70
2023/06/23 06:39:05;;;;;;;;;;;;;;;;;;5000333;28;19944;-68
2023/06/23 06:41:32;;;;;;;;;;;;;;;;;;5005279;28;21095;-69
2023/06/23 06:43:59;;;;;;;;;;;;;;;;;;4997670;28;19981;-68
2023/06/23 06:46:26;;;;;;;;;;;;;;;;;;4992782;28;20017;-66
2023/06/23 06:48:53;;;;;;;;;;;;;;;;;;4999615;28;19941;-69
2023/06/23 06:51:20;;;;;;;;;;;;;;;;;;5005553;28;20909;-68
2023/06/23 06:53:47;;;;;;;;;;;;;;;;;;4994268;28;20337;-69
2023/06/23 06:56:14;;;;;;;;;;;;;;;;;;4997858;28;20012;-68
2023/06/23 06:58:41;;;;;;;;;;;;;;;;;;5000672;28;19926;-68
2023/06/23 07:01:09;;;;;;;;;;;;;;;;;;4993958;28;19968;-69
2023/06/23 07:03:37;;;;;;;;;;;;;;;;;;4993579;28;19926;-69
2023/06/23 07:06:04;;;;;;;;;;;;;;;;;;5007196;28;20028;-69
2023/06/23 07:08:31;;;;;;;;;;;;;;;;;;5008905;28;19926;-70
2023/06/23 07:10:58;;;;;;;;;;;;;;;;;;5003871;28;19972;-69
2023/06/23 07:13:25;;;;;;;;;;;;;;;;;;5007085;28;20340;-69
2023/06/23 07:15:52;;;;;;;;;;;;;;;;;;5007139;28;19932;-69
2023/06/23 07:18:19;;;;;;;;;;;;;;;;;;4997804;28;20428;-69
2023/06/23 07:20:46;;;;;;;;;;;;;;;;;;5010778;28;19973;-69
2023/06/23 07:23:13;;;;;;;;;;;;;;;;;;5005967;28;19937;-69
2023/06/23 07:25:40;;;;;;;;;;;;;;;;;;5013128;28;20024;-69
2023/06/23 07:28:07;;;;;;;;;;;;;;;;;;5002601;28;20012;-69
2023/06/23 07:30:34;;;;;;;;;;;;;;;;;;5000105;28;19963;-68
2023/06/23 07:33:01;;;;;;;;;;;;;;;;;;5012129;28;20425;-68
2023/06/23 07:35:28;;;;;;;;;;;;;;;;;;5008620;28;19926;-68
2023/06/23 07:37:55;;;;;;;;;;;;;;;;;;5010771;28;20043;-70
2023/06/23 07:40:22;;;;;;;;;;;;;;;;;;5007862;28;20013;-69
2023/06/23 07:42:49;;;;;;;;;;;;;;;;;;4992998;28;20448;-69
2023/06/23 07:45:16;;;;;;;;;;;;;;;;;;4992979;28;20444;-69
2023/06/23 07:47:43;;;;;;;;;;;;;;;;;;4993382;28;19926;-69
2023/06/23 07:50:10;;;;;;;;;;;;;;;;;;4996488;28;19969;-69
2023/06/23 07:52:37;;;;;;;;;;;;;;;;;;4996659;28;20487;-69
2023/06/23 07:55:04;;;;;;;;;;;;;;;;;;5000381;28;20321;-69
2023/06/23 07:57:31;;;;;;;;;;;;;;;;;;5006320;28;19980;-69
2023/06/23 07:59:58;;;;;;;;;;;;;;;;;;5020451;28;19972;-70
2023/06/23 08:02:25;;;;;;;;;;;;;;;;;;5007474;28;19992;-69
2023/06/23 08:04:52;;;;;;;;;;;;;;;;;;5010633;28;19929;-69
2023/06/23 08:07:19;;;;;;;;;;;;;;;;;;5004920;28;19968;-69
2023/06/23 08:09:46;;;;;;;;;;;;;;;;;;4999248;28;19980;-69
2023/06/23 08:12:13;;;;;;;;;;;;;;;;;;4994665;28;19926;-69
2023/06/23 08:14:40;;;;;;;;;;;;;;;;;;5005504;28;19931;-69
2023/06/23 08:17:07;;;;;;;;;;;;;;;;;;5009707;28;19932;-69
2023/06/23 08:19:35;;;;;;;;;;;;;;;;;;5004584;28;19933;-69
2023/06/23 08:22:03;;;;;;;;;;;;;;;;;;4992081;28;19934;-70
2023/06/23 08:24:30;;;;;;;;;;;;;;;;;;5001092;28;19935;-70
2023/06/23 08:26:57;;;;;;;;;;;;;;;;;;4998546;28;20052;-69
2023/06/23 08:29:24;;;;;;;;;;;;;;;;;;4990497;28;20471;-69
2023/06/23 08:31:51;;;;;;;;;;;;;;;;;;4996300;28;19930;-69
2023/06/23 08:34:19;;;;;;;;;;;;;;;;;;4995527;28;19932;-70
2023/06/23 08:36:46;;;;;;;;;;;;;;;;;;4997747;28;20289;-70
2023/06/23 08:39:13;;;;;;;;;;;;;;;;;;4995639;28;19961;-70
2023/06/23 08:41:41;;;;;;;;;;;;;;;;;;4990258;28;20301;-70
2023/06/23 08:44:07;;;;;;;;;;;;;;;;;;5006714;28;19996;-70
2023/06/23 08:46:34;;;;;;;;;;;;;;;;;;5004891;28;19925;-72
2023/06/23 08:49:01;;;;;;;;;;;;;;;;;;5004034;28;19943;-69
2023/06/23 08:51:28;;;;;;;;;;;;;;;;;;5002779;28;20335;-69
2023/06/23 08:53:55;;;;;;;;;;;;;;;;;;5008989;28;19991;-70
2023/06/23 08:56:22;;;;;;;;;;;;;;;;;;4997448;28;20302;-70
2023/06/23 08:58:49;;;;;;;;;;;;;;;;;;4998458;28;19980;-69
2023/06/23 09:01:16;;;;;;;;;;;;;;;;;;4998394;28;20025;-70
2023/06/23 09:03:44;;;;;;;;;;;;;;;;;;5000811;28;20025;-70
2023/06/23 09:06:11;;;;;;;;;;;;;;;;;;5001007;28;19945;-70
2023/06/23 09:08:38;;;;;;;;;;;;;;;;;;4995782;28;19973;-70
2023/06/23 09:11:05;;;;;;;;;;;;;;;;;;5000160;28;20005;-70
2023/06/23 09:13:32;;;;;;;;;;;;;;;;;;5003162;28;20000;-70
2023/06/23 09:15:59;;;;;;;;;;;;;;;;;;4996456;28;19933;-69
2023/06/23 09:18:26;;;;;;;;;;;;;;;;;;4993977;28;20446;-70
2023/06/23 09:20:53;;;;;;;;;;;;;;;;;;5011769;28;19926;-70
2023/06/23 09:23:20;;;;;;;;;;;;;;;;;;5008997;28;20458;-71
2023/06/23 09:25:48;;;;;;;;;;;;;;;;;;4994511;28;19926;-70
2023/06/23 09:28:15;;;;;;;;;;;;;;;;;;5001251;28;20304;-69
2023/06/23 09:30:42;;;;;;;;;;;;;;;;;;5000096;28;20012;-70
2023/06/23 09:33:09;;;;;;;;;;;;;;;;;;5002323;28;19964;-70
2023/06/23 09:35:36;;;;;;;;;;;;;;;;;;5001918;28;19932;-71
2023/06/23 09:38:03;;;;;;;;;;;;;;;;;;4993603;28;20041;-71
2023/06/23 09:40:30;;;;;;;;;;;;;;;;;;5004231;28;19933;-70
2023/06/23 09:42:57;;;;;;;;;;;;;;;;;;4997922;28;19934;-70
2023/06/23 09:45:24;;;;;;;;;;;;;;;;;;5007683;28;19952;-65
2023/06/23 09:47:53;;;;;;;;;;;;;;;;;;5003396;28;19945;-68
2023/06/23 09:50:20;;;;;;;;;;;;;;;;;;5012791;28;19983;-68
2023/06/23 09:52:48;;;;;;;;;;;;;;;;;;5009373;28;19925;-67
2023/06/23 09:55:15;;;;;;;;;;;;;;;;;;4998493;28;19930;-67
2023/06/23 09:57:42;;;;;;;;;;;;;;;;;;4998476;28;20020;-68
2023/06/23 10:00:10;;;;;;;;;;;;;;;;;;5005078;28;20384;-69
2023/06/23 10:02:38;;;;;;;;;;;;;;;;;;4991213;28;19934;-69
2023/06/23 10:05:05;;;;;;;;;;;;;;;;;;4995073;28;19933;-67
2023/06/23 10:07:32;;;;;;;;;;;;;;;;;;5004329;28;20016;-68
2023/06/23 10:09:59;;;;;;;;;;;;;;;;;;5003052;28;19936;-68
2023/06/23 10:12:27;;;;;;;;;;;;;;;;;;5000395;28;19926;-68
2023/06/23 10:14:54;;;;;;;;;;;;;;;;;;5004067;28;19925;-73
2023/06/23 10:17:21;;;;;;;;;;;;;;;;;;5002250;28;19955;-72
2023/06/23 10:19:48;;;;;;;;;;;;;;;;;;4994371;28;20072;-76
2023/06/23 10:22:15;;;;;;;;;;;;;;;;;;5003013;28;21413;-72
2023/06/23 10:24:42;;;;;;;;;;;;;;;;;;5008466;28;20021;-74
2023/06/23 10:27:10;;;;;;;;;;;;;;;;;;5010623;28;19925;-74
2023/06/23 10:29:36;;;;;;;;;;;;;;;;;;5007967;28;19983;-74
2023/06/23 10:32:03;;;;;;;;;;;;;;;;;;5005606;28;19933;-74
2023/06/23 10:34:31;;;;;;;;;;;;;;;;;;5009110;28;19965;-73
2023/06/23 10:37:00;;;;;;;;;;;;;;;;;;5010344;28;19957;-74
2023/06/23 10:39:27;;;;;;;;;;;;;;;;;;5008773;28;19925;-75
2023/06/23 10:41:58;;;;;;;;;;;;;;;;;;5008942;28;20401;-75
2023/06/23 10:44:25;;;;;;;;;;;;;;;;;;5003297;28;19948;-74
2023/06/23 10:46:52;;;;;;;;;;;;;;;;;;5010149;28;20412;-74
2023/06/23 10:49:19;;;;;;;;;;;;;;;;;;5005618;28;19925;-75
2023/06/23 10:51:46;;;;;;;;;;;;;;;;;;4997539;28;20377;-75
2023/06/23 10:54:13;;;;;;;;;;;;;;;;;;5005665;28;19972;-75
2023/06/23 10:56:41;;;;;;;;;;;;;;;;;;5008089;28;19964;-75
2023/06/23 10:59:09;;;;;;;;;;;;;;;;;;5010842;28;19926;-74
2023/06/23 11:01:38;;;;;;;;;;;;;;;;;;4997236;28;19969;-75
2023/06/23 11:04:05;;;;;;;;;;;;;;;;;;4996191;28;19983;-73
2023/06/23 11:06:32;;;;;;;;;;;;;;;;;;5003106;28;20020;-74
2023/06/23 11:08:59;;;;;;;;;;;;;;;;;;4999356;28;19953;-74
2023/06/23 11:11:26;;;;;;;;;;;;;;;;;;5000757;28;19926;-74
2023/06/23 11:13:53;;;;;;;;;;;;;;;;;;5004742;28;19926;-74
2023/06/23 11:16:20;;;;;;;;;;;;;;;;;;5002409;28;19929;-74
2023/06/23 11:18:47;;;;;;;;;;;;;;;;;;5005264;28;19925;-74
2023/06/23 11:21:15;;;;;;;;;;;;;;;;;;4996973;28;19929;-74
2023/06/23 11:23:42;;;;;;;;;;;;;;;;;;4995122;28;19932;-74
2023/06/23 11:26:09;;;;;;;;;;;;;;;;;;4998773;28;19995;-74
2023/06/23 11:28:36;;;;;;;;;;;;;;;;;;4992894;28;20389;-74
2023/06/23 11:31:04;;;;;;;;;;;;;;;;;;4998807;28;19933;-74
2023/06/23 11:33:31;;;;;;;;;;;;;;;;;;4994138;28;19965;-75
2023/06/23 11:35:58;;;;;;;;;;;;;;;;;;5010843;28;20357;-73
2023/06/23 11:38:25;;;;;;;;;;;;;;;;;;5006737;28;20012;-74
2023/06/23 11:40:52;;;;;;;;;;;;;;;;;;4999155;28;20048;-74
2023/06/23 11:43:19;;;;;;;;;;;;;;;;;;4992727;28;19925;-74
2023/06/23 11:45:46;;;;;;;;;;;;;;;;;;5011771;28;20045;-74
2023/06/23 11:48:13;;;;;;;;;;;;;;;;;;5003435;28;20460;-73
2023/06/23 11:50:41;;;;;;;;;;;;;;;;;;4992911;28;19926;-72
2023/06/23 11:53:08;;;;;;;;;;;;;;;;;;4991236;28;19988;-74
2023/06/23 11:55:35;;;;;;;;;;;;;;;;;;4992901;28;20037;-74
2023/06/23 11:58:03;;;;;;;;;;;;;;;;;;5005556;28;20009;-74
2023/06/23 12:00:30;;;;;;;;;;;;;;;;;;4996107;28;19969;-74
2023/06/23 12:02:57;;;;;;;;;;;;;;;;;;4998594;28;19961;-72
2023/06/23 12:05:24;;;;;;;;;;;;;;;;;;5001657;28;19972;-74
2023/06/23 12:07:51;;;;;;;;;;;;;;;;;;5000860;28;20358;-74
2023/06/23 12:10:18;;;;;;;;;;;;;;;;;;4993239;28;20148;-74
2023/06/23 12:12:48;;;;;;;;;;;;;;;;;;4997907;28;19980;-74
2023/06/23 12:15:17;;;;;;;;;;;;;;;;;;5009120;28;20427;-74
2023/06/23 12:17:44;;;;;;;;;;;;;;;;;;4997606;28;19932;-74
2023/06/23 12:20:11;;;;;;;;;;;;;;;;;;5010873;28;19972;-74
2023/06/23 12:22:38;;;;;;;;;;;;;;;;;;5000207;28;19976;-74
2023/06/23 12:25:05;;;;;;;;;;;;;;;;;;5000216;28;19925;-74
2023/06/23 12:27:32;;;;;;;;;;;;;;;;;;5005272;28;20447;-74
2023/06/23 12:29:59;;;;;;;;;;;;;;;;;;5014608;28;19926;-74
2023/06/23 12:32:26;;;;;;;;;;;;;;;;;;5000077;28;19957;-74
2023/06/23 12:34:53;;;;;;;;;;;;;;;;;;5001942;28;19979;-73
2023/06/23 12:37:20;;;;;;;;;;;;;;;;;;5004717;28;20103;-76
2023/06/23 12:39:47;;;;;;;;;;;;;;;;;;5004115;28;19977;-74
2023/06/23 12:42:14;;;;;;;;;;;;;;;;;;5000361;28;20036;-73
2023/06/23 12:44:41;;;;;;;;;;;;;;;;;;4997241;28;19972;-74
2023/06/23 12:47:08;;;;;;;;;;;;;;;;;;5015841;28;20032;-74
2023/06/23 12:49:35;;;;;;;;;;;;;;;;;;5010282;28;20461;-74
2023/06/23 12:52:02;;;;;;;;;;;;;;;;;;5014702;28;20364;-75
2023/06/23 12:54:29;;;;;;;;;;;;;;;;;;5004541;28;19972;-74
2023/06/23 12:56:56;;;;;;;;;;;;;;;;;;5003061;28;20021;-74
2023/06/23 12:59:23;;;;;;;;;;;;;;;;;;5001554;28;20193;-74
2023/06/23 13:01:50;;;;;;;;;;;;;;;;;;5014566;28;19971;-74
2023/06/23 13:04:17;;;;;;;;;;;;;;;;;;5005696;28;20470;-75
2023/06/23 13:06:44;;;;;;;;;;;;;;;;;;4997396;28;19957;-74
2023/06/23 13:09:11;;;;;;;;;;;;;;;;;;4998903;28;19925;-76
2023/06/23 13:11:38;;;;;;;;;;;;;;;;;;5000030;28;20529;-74
2023/06/23 13:14:05;;;;;;;;;;;;;;;;;;5011628;28;19926;-75
2023/06/23 13:16:32;;;;;;;;;;;;;;;;;;4998606;28;19964;-76
2023/06/23 13:18:59;;;;;;;;;;;;;;;;;;4997293;28;20250;-76
2023/06/23 13:21:26;;;;;;;;;;;;;;;;;;5006557;28;19925;-78
2023/06/23 13:23:53;;;;;;;;;;;;;;;;;;5005872;28;19961;-77
2023/06/23 13:26:20;;;;;;;;;;;;;;;;;;4998731;28;20017;-78
2023/06/23 13:28:47;;;;;;;;;;;;;;;;;;4997761;28;19926;-73
2023/06/23 13:31:14;;;;;;;;;;;;;;;;;;5003725;28;19929;-73
2023/06/23 13:33:41;;;;;;;;;;;;;;;;;;5004123;28;20016;-74
2023/06/23 13:36:08;;;;;;;;;;;;;;;;;;5002393;28;20397;-75
2023/06/23 13:38:35;;;;;;;;;;;;;;;;;;5003899;28;19926;-73
2023/06/23 13:41:02;;;;;;;;;;;;;;;;;;4995249;28;20016;-74
2023/06/23 13:43:29;;;;;;;;;;;;;;;;;;5000316;28;19965;-73
2023/06/23 13:45:56;;;;;;;;;;;;;;;;;;5014387;28;19972;-73
2023/06/23 13:48:24;;;;;;;;;;;;;;;;;;4994852;28;20028;-73
2023/06/23 13:50:51;;;;;;;;;;;;;;;;;;4998214;28;19933;-73
2023/06/23 13:53:18;;;;;;;;;;;;;;;;;;5009436;28;20020;-74
2023/06/23 13:55:45;;;;;;;;;;;;;;;;;;4996041;28;20452;-74
2023/06/23 13:58:12;;;;;;;;;;;;;;;;;;5000322;28;20028;-75
2023/06/23 14:00:39;;;;;;;;;;;;;;;;;;5007087;28;19925;-74
2023/06/23 14:03:06;;;;;;;;;;;;;;;;;;4997025;28;19932;-75
2023/06/23 14:05:33;;;;;;;;;;;;;;;;;;5000853;28;19972;-75
2023/06/23 14:08:00;;;;;;;;;;;;;;;;;;5004869;28;20012;-76
2023/06/23 14:10:27;;;;;;;;;;;;;;;;;;5001258;28;20352;-77
2023/06/23 14:12:54;;;;;;;;;;;;;;;;;;5008736;28;20096;-75
2023/06/23 14:15:21;;;;;;;;;;;;;;;;;;5007999;28;19925;-75
2023/06/23 14:17:48;;;;;;;;;;;;;;;;;;5008176;28;19925;-76
2023/06/23 14:20:15;;;;;;;;;;;;;;;;;;5002510;28;20408;-75
2023/06/23 14:22:42;;;;;;;;;;;;;;;;;;5010505;28;20156;-75
2023/06/23 14:25:09;;;;;;;;;;;;;;;;;;5009757;28;19972;-75
2023/06/23 14:27:36;;;;;;;;;;;;;;;;;;5011835;28;19925;-75
2023/06/23 14:30:03;;;;;;;;;;;;;;;;;;4998382;28;20017;-75
2023/06/23 14:32:31;;;;;;;;;;;;;;;;;;5003302;28;19939;-74
2023/06/23 14:34:58;;;;;;;;;;;;;;;;;;5012124;28;19948;-74
2023/06/23 14:37:25;;;;;;;;;;;;;;;;;;5008150;28;19929;-75
2023/06/23 14:39:52;;;;;;;;;;;;;;;;;;5008643;28;20016;-75
2023/06/23 14:42:19;;;;;;;;;;;;;;;;;;5009687;28;19995;-73
2023/06/23 14:44:46;;;;;;;;;;;;;;;;;;5004825;28;19957;-74
2023/06/23 14:47:13;;;;;;;;;;;;;;;;;;4999543;28;19940;-75
2023/06/23 14:49:40;;;;;;;;;;;;;;;;;;5008455;28;19926;-74
2023/06/23 14:52:07;;;;;;;;;;;;;;;;;;5009579;28;19929;-74
2023/06/23 14:54:34;;;;;;;;;;;;;;;;;;4993945;28;20395;-73
2023/06/23 14:57:01;;;;;;;;;;;;;;;;;;4996642;28;19931;-76
2023/06/23 14:59:28;;;;;;;;;;;;;;;;;;5001426;28;20092;-75
2023/06/23 15:01:55;;;;;;;;;;;;;;;;;;5011442;28;19981;-75
2023/06/23 15:04:25;;;;;;;;;;;;;;;;;;4997802;28;20199;-75
2023/06/23 15:06:52;;;;;;;;;;;;;;;;;;5007321;28;19926;-75
2023/06/23 15:09:19;;;;;;;;;;;;;;;;;;5007523;28;20363;-75
2023/06/23 15:11:46;;;;;;;;;;;;;;;;;;5008274;28;19947;-72
2023/06/23 15:14:13;;;;;;;;;;;;;;;;;;4993828;28;19929;-73
2023/06/23 15:16:40;;;;;;;;;;;;;;;;;;4995509;28;19973;-75
2023/06/23 15:19:07;;;;;;;;;;;;;;;;;;5001345;28;19925;-75
2023/06/23 15:21:35;;;;;;;;;;;;;;;;;;4996118;28;20024;-74
2023/06/23 15:24:02;;;;;;;;;;;;;;;;;;4994101;28;20385;-79
2023/06/23 15:26:33;;;;;;;;;;;;;;;;;;4995034;28;19929;-80
2023/06/23 15:29:02;;;;;;;;;;;;;;;;;;5009297;28;19925;-79
2023/06/23 15:31:29;;;;;;;;;;;;;;;;;;5014995;28;19971;-80
2023/06/23 15:33:56;;;;;;;;;;;;;;;;;;5006756;28;19929;-80
2023/06/23 15:36:24;;;;;;;;;;;;;;;;;;4994043;28;19953;-80
2023/06/23 15:38:50;;;;;;;;;;;;;;;;;;5004727;28;19925;-78
2023/06/23 15:41:18;;;;;;;;;;;;;;;;;;4997099;28;20036;-77
2023/06/23 15:43:45;;;;;;;;;;;;;;;;;;5006042;28;19980;-76
2023/06/23 15:46:20;;;;;;;;;;;;;;;;;;5001707;28;20015;-80
2023/06/23 15:48:47;;;;;;;;;;;;;;;;;;5004850;28;19926;-79
2023/06/23 15:51:19;;;;;;;;;;;;;;;;;;5005119;28;20665;-78
2023/06/23 15:53:46;;;;;;;;;;;;;;;;;;5007455;28;19925;-78
2023/06/23 15:56:13;;;;;;;;;;;;;;;;;;5010605;28;19935;-77
2023/06/23 15:58:40;;;;;;;;;;;;;;;;;;5001795;28;20465;-77
2023/06/23 16:01:07;;;;;;;;;;;;;;;;;;5002263;28;19933;-77
2023/06/23 16:03:34;;;;;;;;;;;;;;;;;;4999507;28;20009;-78
2023/06/23 16:06:01;;;;;;;;;;;;;;;;;;5003212;28;19925;-76
2023/06/23 16:08:28;;;;;;;;;;;;;;;;;;5011496;28;20020;-75
2023/06/23 16:10:56;;;;;;;;;;;;;;;;;;5010691;28;19933;-76
2023/06/23 16:13:23;;;;;;;;;;;;;;;;;;5000154;28;20008;-75
2023/06/23 16:15:50;;;;;;;;;;;;;;;;;;5006926;28;20296;-75
2023/06/23 16:18:17;;;;;;;;;;;;;;;;;;5010649;28;19926;-73
2023/06/23 16:20:44;;;;;;;;;;;;;;;;;;5002051;28;20377;-73
2023/06/23 16:23:11;;;;;;;;;;;;;;;;;;5001639;28;20114;-73
2023/06/23 16:25:39;;;;;;;;;;;;;;;;;;5006929;28;20028;-73
2023/06/23 16:28:06;;;;;;;;;;;;;;;;;;5009339;28;19948;-72
2023/06/23 16:30:33;;;;;;;;;;;;;;;;;;5001958;28;20320;-73
2023/06/23 16:33:00;;;;;;;;;;;;;;;;;;5005865;28;19925;-75
2023/06/23 16:35:27;;;;;;;;;;;;;;;;;;5006523;28;20611;-72
2023/06/23 16:37:54;;;;;;;;;;;;;;;;;;5010274;28;19933;-73
2023/06/23 16:40:21;;;;;;;;;;;;;;;;;;5006205;28;19980;-72
2023/06/23 16:42:48;;;;;;;;;;;;;;;;;;5003758;28;20296;-73
2023/06/23 16:45:15;;;;;;;;;;;;;;;;;;5008437;28;19926;-73